Fir Grove, Oregon
Current Conditions -  °F | °C
As of 11:54 AM on Monday 24 Nov 2014 (Local Time) from KEUG Reporting Station
Broken Clouds Broken Clouds  
Wind Chill: 53°   Ceiling: 25000
Heat Index: 53°   Visibility: 10mi
Dew Point: 40°   Wind: 12mph
Humidity: 61%   Direction: 200°SSW
Pressure: 30.36"   Gusts: NA
Location:  44.0685°N, 123.082°W
Report Text: KEUG 241954Z 20010KT 10SM FEW080 SCT150 BKN250 12/04 A3036 RMK AO2 SLP281 T01170044
Loading
Personal Weather Stations






























Interactive Weather Map New forecast layout! Learn more

10-Day Weather Forecast

Advertisements
Track Severe Weather on mobile